createdAt,value
2022-10-14T00:01:14.313Z,77.48
2022-10-14T00:04:17.196Z,77.13
2022-10-14T00:07:20.188Z,77.70
2022-10-14T00:10:23.696Z,77.66
2022-10-14T00:13:26.454Z,78.13
2022-10-14T00:16:35.193Z,78.53
2022-10-14T00:19:38.080Z,78.28
2022-10-14T00:22:40.748Z,78.68
2022-10-14T00:25:43.429Z,78.48
2022-10-14T00:28:46.353Z,78.57
2022-10-14T00:31:49.361Z,78.25
2022-10-14T00:34:52.144Z,78.37
2022-10-14T00:37:55.192Z,77.98
2022-10-14T00:40:58.344Z,77.65
2022-10-14T00:44:13.292Z,78.12
2022-10-14T00:47:16.773Z,77.54
2022-10-14T00:50:20.910Z,77.86
2022-10-14T00:53:23.948Z,78.15
2022-10-14T00:56:30.622Z,78.06
2022-10-14T00:59:35.072Z,77.65
2022-10-14T01:02:39.304Z,78.46
2022-10-14T01:05:52.644Z,78.39
2022-10-14T01:09:04.959Z,78.82
2022-10-14T01:12:29.739Z,78.98
2022-10-14T01:16:10.250Z,79.56
2022-10-14T01:19:38.626Z,79.32
2022-10-14T01:23:03.554Z,79.83
2022-10-14T01:26:22.325Z,79.70
2022-10-14T01:29:43.772Z,79.63
2022-10-14T01:33:01.285Z,79.74
2022-10-14T01:36:07.050Z,79.35
2022-10-14T01:39:22.023Z,79.49
2022-10-14T01:42:29.763Z,79.22
2022-10-14T01:45:35.269Z,79.30
2022-10-14T01:48:44.390Z,79.36
2022-10-14T01:51:59.544Z,80.32
2022-10-14T01:55:06.543Z,79.95
2022-10-14T01:58:12.548Z,79.77
2022-10-14T02:01:15.762Z,80.21
2022-10-14T02:04:22.017Z,79.79
2022-10-14T02:07:34.716Z,80.09
2022-10-14T02:11:00.989Z,79.87
2022-10-14T02:14:16.634Z,80.19
2022-10-14T02:17:28.854Z,80.35
2022-10-14T02:20:41.518Z,80.49
2022-10-14T02:24:05.678Z,80.98
2022-10-14T02:27:14.989Z,81.13
2022-10-14T02:30:19.221Z,81.55
2022-10-14T02:33:34.137Z,81.43
2022-10-14T02:36:38.932Z,82.11
2022-10-14T02:39:46.701Z,81.97
2022-10-14T02:42:49.709Z,82.24
2022-10-14T02:45:58.020Z,82.28
2022-10-14T02:49:01.892Z,82.18
2022-10-14T02:52:04.758Z,82.63
2022-10-14T02:55:07.911Z,81.82
2022-10-14T02:58:10.777Z,81.74
2022-10-14T03:01:13.545Z,81.10
2022-10-14T03:04:16.553Z,81.03
2022-10-14T03:07:19.670Z,80.58
2022-10-14T03:10:26.564Z,80.57
2022-10-14T03:13:30.570Z,80.44
2022-10-14T03:16:33.291Z,80.47
2022-10-14T03:19:36.261Z,80.77
2022-10-14T03:22:39.334Z,80.61
2022-10-14T03:25:45.185Z,80.45
2022-10-14T03:28:54.807Z,80.46
2022-10-14T03:32:04.203Z,80.88
2022-10-14T03:35:29.615Z,80.85
2022-10-14T03:38:33.278Z,80.87
2022-10-14T03:41:37.959Z,80.16
2022-10-14T03:44:42.208Z,79.63
2022-10-14T03:47:52.218Z,79.97
2022-10-14T03:50:54.982Z,79.61
2022-10-14T03:53:58.533Z,79.73
2022-10-14T03:57:04.639Z,80.31
2022-10-14T04:00:16.211Z,80.02
2022-10-14T04:03:18.840Z,79.97
2022-10-14T04:06:21.742Z,79.88
2022-10-14T04:09:29.391Z,79.85
2022-10-14T04:12:32.673Z,79.58
2022-10-14T04:15:46.186Z,79.75
2022-10-14T04:18:58.658Z,79.71
2022-10-14T04:22:01.598Z,79.88
2022-10-14T04:25:05.051Z,79.95
2022-10-14T04:28:07.830Z,79.69
2022-10-14T04:31:33.562Z,79.89
2022-10-14T04:34:38.825Z,80.04
2022-10-14T04:37:43.314Z,80.22
2022-10-14T04:40:57.110Z,80.35
2022-10-14T04:43:59.920Z,80.21
2022-10-14T04:47:08.430Z,80.56
2022-10-14T04:50:12.212Z,80.81
2022-10-14T04:53:34.817Z,80.73
2022-10-14T04:56:50.889Z,81.46
2022-10-14T04:59:53.755Z,81.05
2022-10-14T05:03:16.752Z,81.79
2022-10-14T05:06:20.471Z,81.88
2022-10-14T05:09:27.145Z,81.28
2022-10-14T05:12:39.490Z,82.00
2022-10-14T05:15:42.343Z,82.30
2022-10-14T05:18:48.457Z,82.27
2022-10-14T05:21:51.376Z,82.44
2022-10-14T05:25:07.606Z,82.30
2022-10-14T05:28:10.491Z,82.40
2022-10-14T05:31:16.466Z,82.91
2022-10-14T05:34:26.748Z,82.89
2022-10-14T05:37:30.564Z,82.40
2022-10-14T05:40:33.675Z,81.42
2022-10-14T05:43:36.698Z,80.96
2022-10-14T05:46:41.979Z,80.48
2022-10-14T05:49:45.000Z,80.28
2022-10-14T05:52:48.899Z,80.17
2022-10-14T05:56:06.821Z,79.66
2022-10-14T05:59:10.640Z,79.02
2022-10-14T06:07:48.020Z,77.69
2022-10-14T06:10:53.095Z,77.63
2022-10-14T06:13:59.800Z,76.45
2022-10-14T06:17:03.344Z,75.65
2022-10-14T06:20:08.616Z,75.68
2022-10-14T06:23:11.724Z,74.38
2022-10-14T06:26:14.598Z,73.68
2022-10-14T06:29:18.361Z,73.38
2022-10-14T06:33:09.731Z,72.77
2022-10-14T06:36:18.541Z,72.44
2022-10-14T06:39:22.262Z,71.17
2022-10-14T06:42:27.021Z,67.02
2022-10-14T06:45:30.779Z,64.71
2022-10-14T06:48:34.833Z,62.12
2022-10-14T06:51:39.897Z,60.28
2022-10-14T06:54:48.042Z,62.90
2022-10-14T06:57:51.227Z,66.49
2022-10-14T07:01:05.962Z,67.03
2022-10-14T07:04:12.027Z,70.35
2022-10-14T07:07:14.715Z,69.56
2022-10-14T07:10:18.576Z,69.42
2022-10-14T07:13:22.239Z,67.34
2022-10-14T07:16:25.154Z,63.18
2022-10-14T07:19:27.936Z,57.39
2022-10-14T07:26:09.722Z,51.60
2022-10-14T07:29:14.600Z,49.90
2022-10-14T07:32:37.322Z,49.33
2022-10-14T07:35:40.118Z,46.73
2022-10-14T07:38:43.361Z,45.39
2022-10-14T07:41:46.181Z,44.89
2022-10-14T07:44:50.782Z,43.85
2022-10-14T07:47:53.735Z,39.23
2022-10-14T07:50:56.974Z,38.45
2022-10-14T07:54:12.557Z,41.43
2022-10-14T07:57:18.910Z,41.62
2022-10-14T08:00:22.045Z,46.54
2022-10-14T08:03:28.133Z,49.35
2022-10-14T08:06:31.055Z,48.20
2022-10-14T08:09:36.817Z,46.18
2022-10-14T08:12:45.570Z,48.27
2022-10-14T08:15:52.229Z,53.51
2022-10-14T08:19:01.142Z,49.28
2022-10-14T08:22:06.683Z,41.68
2022-10-14T08:25:09.739Z,41.10
2022-10-14T08:28:12.558Z,38.48
2022-10-14T08:31:15.810Z,36.01
2022-10-14T08:34:21.470Z,34.97
2022-10-14T08:37:24.641Z,35.10
2022-10-14T08:40:46.643Z,33.80
2022-10-14T08:44:28.023Z,33.27
2022-10-14T08:47:43.321Z,37.60
2022-10-14T08:50:54.402Z,36.63
2022-10-14T08:54:06.633Z,33.90
2022-10-14T08:57:21.244Z,39.85
2022-10-14T09:00:23.995Z,36.75
2022-10-14T09:03:33.997Z,36.55
2022-10-14T09:06:42.869Z,32.01
2022-10-14T09:09:50.091Z,34.30
2022-10-14T09:12:56.394Z,34.07
2022-10-14T09:16:08.910Z,32.93
2022-10-14T09:19:29.064Z,31.45
2022-10-14T09:22:32.988Z,29.68
2022-10-14T09:25:41.005Z,30.19
2022-10-14T09:28:46.001Z,27.91
2022-10-14T09:31:49.234Z,31.12
2022-10-14T09:34:52.879Z,29.96
2022-10-14T09:38:02.892Z,32.22
2022-10-14T09:41:12.693Z,27.61
2022-10-14T09:44:22.105Z,26.17
2022-10-14T09:47:25.482Z,27.10
2022-10-14T09:50:31.534Z,25.37
2022-10-14T09:53:45.767Z,24.70
2022-10-14T09:56:49.801Z,25.57
2022-10-14T09:59:59.266Z,24.60
2022-10-14T10:03:03.571Z,24.16
2022-10-14T10:06:12.755Z,27.99
2022-10-14T10:09:22.904Z,26.85
2022-10-14T10:12:34.864Z,26.47
2022-10-14T10:15:38.153Z,27.44
2022-10-14T10:19:31.555Z,30.62
2022-10-14T10:22:37.295Z,28.10
2022-10-14T10:25:40.080Z,26.54
2022-10-14T10:28:50.264Z,27.79
2022-10-14T10:32:30.368Z,26.69
2022-10-14T10:35:33.949Z,26.60
2022-10-14T10:38:54.740Z,26.34
2022-10-14T10:42:25.715Z,28.51
2022-10-14T10:45:38.159Z,26.46
2022-10-14T10:48:47.915Z,28.50
2022-10-14T10:52:21.786Z,27.24
2022-10-14T10:55:58.600Z,25.34
2022-10-14T11:03:02.740Z,26.20
2022-10-14T11:07:07.946Z,23.73
2022-10-14T11:10:34.336Z,25.00
2022-10-14T11:14:01.259Z,27.59
2022-10-14T11:23:07.809Z,23.27
2022-10-14T11:26:48.278Z,22.41
2022-10-14T11:30:28.894Z,23.29
2022-10-14T11:34:10.809Z,21.29
2022-10-14T11:37:35.490Z,21.60
2022-10-14T11:41:13.295Z,22.96
2022-10-14T11:44:38.134Z,22.54
2022-10-14T11:47:44.404Z,23.21
2022-10-14T11:50:50.501Z,26.33
2022-10-14T11:54:31.089Z,22.41
2022-10-14T11:57:44.330Z,23.05
2022-10-14T12:00:53.631Z,28.66
2022-10-14T12:04:03.024Z,29.14
2022-10-14T12:07:13.734Z,28.61
2022-10-14T12:10:48.575Z,24.88
2022-10-14T12:14:31.144Z,24.07
2022-10-14T12:17:42.993Z,24.98
2022-10-14T12:21:00.298Z,24.44
2022-10-14T12:29:41.279Z,25.57
2022-10-14T12:33:08.668Z,27.50
2022-10-14T12:39:42.656Z,25.37
2022-10-14T12:42:48.526Z,24.86
2022-10-14T12:45:59.053Z,26.85
2022-10-14T12:49:02.124Z,24.12
2022-10-14T12:57:42.719Z,28.61
2022-10-14T13:00:56.240Z,31.87
2022-10-14T13:04:20.148Z,30.84
2022-10-14T13:07:42.279Z,29.57
2022-10-14T13:10:57.607Z,27.52
2022-10-14T13:14:02.021Z,27.49
2022-10-14T13:17:28.898Z,30.16
2022-10-14T13:20:35.120Z,29.94
2022-10-14T13:23:49.631Z,30.17
2022-10-14T13:26:55.336Z,29.87
2022-10-14T13:30:05.330Z,32.65
2022-10-14T13:33:14.919Z,31.45
2022-10-14T13:36:30.797Z,33.67
2022-10-14T13:39:35.032Z,36.01
2022-10-14T13:42:40.190Z,33.86
2022-10-14T13:45:46.270Z,30.38
2022-10-14T13:48:51.886Z,35.99
2022-10-14T13:52:02.018Z,34.90
2022-10-14T13:55:17.038Z,30.97
2022-10-14T13:58:24.881Z,34.94
2022-10-14T14:01:36.579Z,36.13
2022-10-14T14:04:40.206Z,37.19
2022-10-14T14:08:22.196Z,36.39
2022-10-14T14:11:17.208Z,39.21
2022-10-14T14:14:25.670Z,36.11
2022-10-14T14:17:33.404Z,36.28
2022-10-14T14:20:38.526Z,34.10
2022-10-14T14:23:58.935Z,35.63
2022-10-14T14:27:02.930Z,35.88
2022-10-14T14:30:23.293Z,35.32
2022-10-14T14:33:30.695Z,39.07
2022-10-14T14:36:50.941Z,40.16
2022-10-14T14:40:01.769Z,39.70
2022-10-14T14:43:05.777Z,42.71
2022-10-14T14:46:18.722Z,43.02
2022-10-14T14:49:27.346Z,42.74
2022-10-14T14:52:30.667Z,43.24
2022-10-14T14:55:42.797Z,44.06
2022-10-14T14:58:52.961Z,44.52
2022-10-14T15:05:10.747Z,45.99
2022-10-14T15:08:23.002Z,46.28
2022-10-14T15:11:26.964Z,47.26
2022-10-14T15:14:50.330Z,47.63
2022-10-14T15:18:14.795Z,48.28
2022-10-14T15:21:19.557Z,49.04
2022-10-14T15:24:22.306Z,49.59
2022-10-14T15:27:31.042Z,50.49
2022-10-14T15:30:53.324Z,51.29
2022-10-14T15:33:56.216Z,52.00
2022-10-14T15:36:59.036Z,52.29
2022-10-14T15:40:03.959Z,52.85
2022-10-14T15:43:16.630Z,53.89
2022-10-14T15:46:41.632Z,54.13
2022-10-14T15:49:44.904Z,54.90
2022-10-14T15:52:47.770Z,55.20
2022-10-14T15:55:53.205Z,55.55
2022-10-14T15:58:56.398Z,56.39
2022-10-14T16:01:59.172Z,56.17
2022-10-14T16:08:24.951Z,56.51
2022-10-14T16:11:30.192Z,56.87
2022-10-14T16:14:32.935Z,56.46
2022-10-14T16:17:36.796Z,55.68
2022-10-14T16:20:39.571Z,55.45
2022-10-14T16:23:43.550Z,55.06
2022-10-14T16:26:49.249Z,56.24
2022-10-14T16:29:58.045Z,57.14
2022-10-14T16:33:01.116Z,57.15
2022-10-14T16:36:06.981Z,56.35
2022-10-14T16:39:11.091Z,56.75
2022-10-14T16:42:13.839Z,56.67
2022-10-14T16:45:17.099Z,56.64
2022-10-14T16:48:19.991Z,57.18
2022-10-14T16:51:23.170Z,57.89
2022-10-14T16:54:25.999Z,57.67
2022-10-14T16:57:28.775Z,57.46
2022-10-14T17:00:31.848Z,57.08
2022-10-14T17:03:34.611Z,57.29
2022-10-14T17:06:37.489Z,57.14
2022-10-14T17:09:42.619Z,57.88
2022-10-14T17:12:45.510Z,59.18
2022-10-14T17:15:48.292Z,61.65
2022-10-14T17:18:51.474Z,61.88
2022-10-14T17:21:54.376Z,63.84
2022-10-14T17:24:57.121Z,64.40
2022-10-14T17:27:59.933Z,65.02
2022-10-14T17:31:02.711Z,66.17
2022-10-14T17:34:05.688Z,66.50
2022-10-14T17:40:11.868Z,67.39
2022-10-14T17:43:15.081Z,68.35
2022-10-14T17:46:21.358Z,68.66
2022-10-14T17:49:24.503Z,69.38
2022-10-14T17:52:27.316Z,69.71
2022-10-14T17:55:30.103Z,70.11
2022-10-14T17:58:33.319Z,70.42
2022-10-14T18:02:00.949Z,70.17
2022-10-14T18:04:58.866Z,69.55
2022-10-14T18:08:02.035Z,69.34
2022-10-14T18:11:10.800Z,69.27
2022-10-14T18:14:14.475Z,69.84
2022-10-14T18:17:17.431Z,69.43
2022-10-14T18:20:20.277Z,69.18
2022-10-14T18:23:28.487Z,69.18
2022-10-14T18:26:32.508Z,69.25
2022-10-14T18:29:35.612Z,69.57
2022-10-14T18:32:38.471Z,69.83
2022-10-14T18:35:45.113Z,70.08
2022-10-14T18:38:54.043Z,70.62
2022-10-14T18:41:56.766Z,71.04
2022-10-14T18:44:59.587Z,71.66
2022-10-14T18:48:02.402Z,72.20
2022-10-14T18:51:06.683Z,72.83
2022-10-14T18:54:17.845Z,74.40
2022-10-14T18:57:21.212Z,74.82
2022-10-14T19:00:27.268Z,74.42
2022-10-14T19:03:30.123Z,74.92
2022-10-14T19:06:34.334Z,75.33
2022-10-14T19:09:37.121Z,75.33
2022-10-14T19:12:42.550Z,74.65
2022-10-14T19:15:51.468Z,74.16
2022-10-14T19:18:59.649Z,73.57
2022-10-14T19:22:02.494Z,73.62
2022-10-14T19:25:05.528Z,73.21
2022-10-14T19:28:09.738Z,73.96
2022-10-14T19:31:27.349Z,74.30
2022-10-14T19:34:30.190Z,74.64
2022-10-14T19:37:32.927Z,75.36
2022-10-14T19:40:36.022Z,75.78
2022-10-14T19:43:39.310Z,76.46
2022-10-14T19:46:42.929Z,77.21
2022-10-14T19:49:45.764Z,77.91
2022-10-14T19:52:48.524Z,77.98
2022-10-14T19:55:51.297Z,78.60
2022-10-14T19:58:57.008Z,79.08
2022-10-14T20:01:59.754Z,79.10
2022-10-14T20:05:02.617Z,78.69
2022-10-14T20:08:05.425Z,79.45
2022-10-14T20:11:10.570Z,79.14
2022-10-14T20:14:14.566Z,79.18
2022-10-14T20:17:17.457Z,79.81
2022-10-14T20:20:20.131Z,79.80
2022-10-14T20:23:24.428Z,81.19
2022-10-14T20:26:27.222Z,81.34
2022-10-14T20:29:30.066Z,81.38
2022-10-14T20:32:32.913Z,81.17
2022-10-14T20:35:35.840Z,81.81
2022-10-14T20:38:39.765Z,82.79
2022-10-14T20:41:42.634Z,83.39
2022-10-14T20:44:45.373Z,84.02
2022-10-14T20:47:53.374Z,84.45
2022-10-14T20:50:57.039Z,84.96
2022-10-14T20:54:04.147Z,84.81
2022-10-14T20:57:10.196Z,84.75
2022-10-14T21:00:13.620Z,85.51
2022-10-14T21:03:16.416Z,85.68
2022-10-14T21:06:22.915Z,85.45
2022-10-14T21:09:25.901Z,85.84
2022-10-14T21:12:28.651Z,86.20
2022-10-14T21:15:31.596Z,85.89
2022-10-14T21:18:34.429Z,85.05
2022-10-14T21:21:43.059Z,85.16
2022-10-14T21:24:47.757Z,86.07
2022-10-14T21:27:50.567Z,86.03
2022-10-14T21:30:53.315Z,85.82
2022-10-14T21:34:05.468Z,86.03
2022-10-14T21:37:08.689Z,86.25
2022-10-14T21:40:12.842Z,85.82
2022-10-14T21:43:15.526Z,85.73
2022-10-14T21:46:18.401Z,85.90
2022-10-14T21:49:21.122Z,85.93
2022-10-14T21:52:24.141Z,86.23
2022-10-14T21:55:27.237Z,85.54
2022-10-14T21:58:30.616Z,85.60
2022-10-14T22:01:33.521Z,86.48
2022-10-14T22:04:38.309Z,87.05
2022-10-14T22:07:41.368Z,86.87
2022-10-14T22:10:45.145Z,87.55
2022-10-14T22:13:48.378Z,87.92
2022-10-14T22:16:51.140Z,87.50
2022-10-14T22:19:53.949Z,88.03
2022-10-14T22:22:58.974Z,88.14
2022-10-14T22:26:02.929Z,88.28
2022-10-14T22:29:16.488Z,88.82
2022-10-14T22:32:19.398Z,88.58
2022-10-14T22:35:23.813Z,89.07
2022-10-14T22:38:26.651Z,90.07
2022-10-14T22:41:34.813Z,89.93
2022-10-14T22:44:38.306Z,89.33
2022-10-14T22:47:41.295Z,89.16
2022-10-14T22:50:44.071Z,89.29
2022-10-14T22:53:47.282Z,89.17
2022-10-14T22:56:50.007Z,88.64
2022-10-14T22:59:52.764Z,88.85
2022-10-14T23:02:55.659Z,89.32
2022-10-14T23:06:04.117Z,89.84
2022-10-14T23:09:06.961Z,89.87
2022-10-14T23:12:09.762Z,89.89
2022-10-14T23:15:12.588Z,89.93
2022-10-14T23:18:15.448Z,90.19
2022-10-14T23:21:30.045Z,90.02
2022-10-14T23:24:32.848Z,89.73
2022-10-14T23:27:36.422Z,89.68
2022-10-14T23:30:39.547Z,89.74
2022-10-14T23:33:43.155Z,89.65
2022-10-14T23:36:45.954Z,89.86
2022-10-14T23:39:48.924Z,90.46
2022-10-14T23:42:51.699Z,91.31
2022-10-14T23:45:54.703Z,90.73
2022-10-14T23:49:14.014Z,91.47
2022-10-14T23:52:20.373Z,91.20
2022-10-14T23:55:23.241Z,90.62
2022-10-14T23:58:28.570Z,91.28
